Terminal Aerodrome Forecast
Issued by NWS Pendleton, OR

Home | Current Version | Previous Version | Text Only | Print | Product List | Glossary On
Versions: 1 2 3 4 5 6 7 8 9 10 11 12
000
FTUS46 KPDT 180500
TAFPDT
TAF
KPDT 180521Z 1806/1906 13006KT P6SM SCT130 BKN200
     FM181200 VRB05KT P6SM SCT080 BKN150
     FM182100 27010G20KT P6SM SCT070 BKN120=

USA.gov is the U.S. government's official web portal to all federal, state and local government web resources and services.